AirNav   Jet Aviation Boston
 
 1605 users online  

MS08 Harrell Field Airport
Pisgah, Mississippi, USA

GOING TO PISGAH?


FAA INFORMATION EFFECTIVE 24 MAY 2018

Location

FAA Identifier: MS08
Lat/Long: 32-28-26.0000N / 089-51-06.4000W
32-28.433333N / 089-51.106667W
32.4738889 / -89.8517778
(estimated)
Elevation: 385 ft. / 117 m (estimated)
Variation: 01E (2000)
From city: 1 mile NE of PISGAH, MS
Time zone: UTC -5 (UTC -6 during Standard Time)
Zip code: 39047

Airport Operations

Airport use: Private use. Permission required prior to landing
Activation date: 03/2001
Control tower: no
ARTCC: MEMPHIS CENTER
FSS: GREENWOOD FLIGHT SERVICE STATION
Attendance: UNATNDD
Wind indicator: yes
Segmented circle: no

Airport Communications

WX AWOS-3PT at MBO (13 nm W): 119.125 (601-605-8137)
WX ASOS at JAN (15 nm SW): PHONE 601-932-2822

Nearby radio navigation aids

VOR radial/distance  VOR name  Freq  Var
MHZr080/12.8MAGNOLIA VORTAC113.2001W

 
NDB name  Hdg/Dist  Freq  Var  ID
ALLEN076/14.036501WJA .--- .-

Airport Services

Runway Information

Runway 18/36

Dimensions: 2600 x 75 ft. / 792 x 23 m
Surface: turf
RUNWAY 18  RUNWAY 36
Traffic pattern: leftleft

Airport Ownership and Management from official FAA records

Ownership: Privately-owned
Owner: CENTRAL MS LIGHT FLYERS INC.
380 FANNIN LANDING CIRCLE
BRANDON, MS 39047
Phone (601) 951-7762
CENTRAL MISSISSIPPI LIGHT FLYERS INC.

Airport Operational Statistics

Aircraft based on the field: 19
Single engine airplanes: 15
Ultralights: 4
    

Additional Remarks

40 FT POWER LINE & TREES 1100 FT SOUTH OF RY.
ULTRALIGHT ACFT & HANG GLIDERS ON & INVOF ARPT.

Instrument Procedures

There are no published instrument procedures at MS08.

Some nearby airports with instrument procedures:

KMBO - Bruce Campbell Field Airport (13 nm W)
KJAN - Jackson-Medgar Wiley Evers International Airport (15 nm SW)
KHKS - Hawkins Field Airport (21 nm SW)
KJVW - John Bell Williams Airport (30 nm W)
17M - Magee Municipal Airport (37 nm S)
 
Loc | Ops | Rwys | IFR | FBO | Links
Com | Nav | Svcs | Stats | Notes

AirNav Hotels Sweepstakes
 
Area around MS08 (Harrell Field Airport)
 
Road maps at: MapQuest Bing Google
 
Aerial photo
WARNING: Photo may not be current or correct
Aerial photo of MS08 (Harrell Field Airport)
Do you have a better or more recent aerial photo of Harrell Field Airport that you would like to share? If so, please send us your photo.

 
Sectional chart

 
Airport distance calculator
Flying to Harrell Field Airport? Find the distance to fly.

From to MS08

Sunrise and sunset
Times for 24-May-2018
 Local
(UTC-5)
 Zulu
(UTC)
Morning civil twilight05:2910:29
Sunrise05:5710:57
Sunset19:5600:56
Evening civil twilight20:2301:23

Current date and time
Zulu (UTC)  24-May-2018 16:26:32
Local (UTC-5)  24-May-2018 11:26:32
 
METAR
KMBO 
13nm W 
241615Z AUTO 00000KT 10SM CLR 25/21 A3011 RMK AO2 PWINO
KJAN 
15nm SW 
241554Z 35006KT 10SM FEW120 BKN170 25/21 A3012 RMK AO2 SLP196 T02500211
KHKS 
20nm SW 
241553Z 01003KT 10SM BKN110 26/22 A3012 RMK AO2 SLP193 T02560217
TAF
KJAN 
15nm SW 
241253Z 2413/2512 00000KT P6SM FEW007 BKN150 FM241330 VRB04KT P6SM FEW015 SCT170 FM242000 02003KT P6SM VCTS SCT030 BKN050CB FM250200 VRB03KT P6SM SCT100
NOTAMs
Click for the latest NOTAMs
NOTAMs are issued by the DoD/FAA and will open in a separate window not controlled by AirNav.

 

 
 

Would you like to see your business listed on this page?

 If your business provides an interesting product or service to pilots, flight crews, aircraft, or users of the Harrell Field Airport, you should consider listing it here.  To start the listing process, click on the button below
 
Add a business
 

Other Pages about Harrell Field Airport

Update a link
 
Copyright © AirNav, LLC. All rights reserved. Privacy Policy  Contact